createdAt,value
2022-08-30T04:02:18.855Z,10.25
2022-08-30T04:03:18.968Z,10.35
2022-08-30T04:04:21.180Z,10.28
2022-08-30T04:05:21.402Z,10.33
2022-08-30T04:06:46.436Z,10.38
2022-08-30T04:07:19.988Z,10.38
2022-08-30T04:08:21.430Z,10.30
2022-08-30T04:09:19.930Z,10.31
2022-08-30T04:10:20.855Z,10.28
2022-08-30T04:11:19.984Z,10.28
2022-08-30T04:12:22.875Z,10.28
2022-08-30T04:13:20.054Z,10.22
2022-08-30T04:14:19.974Z,10.22
2022-08-30T04:15:19.856Z,10.12
2022-08-30T04:16:20.067Z,10.10
2022-08-30T04:17:19.867Z,10.16
2022-08-30T04:18:20.586Z,10.02
2022-08-30T04:19:19.899Z,10.09
2022-08-30T04:20:19.958Z,9.99
2022-08-30T04:21:19.860Z,10.10
2022-08-30T04:22:20.606Z,10.09
2022-08-30T04:23:19.868Z,9.99
2022-08-30T04:24:19.859Z,10.01
2022-08-30T04:25:19.869Z,10.02
2022-08-30T04:26:19.858Z,10.12
2022-08-30T04:27:19.824Z,10.33
2022-08-30T04:28:54.005Z,10.40
2022-08-30T04:29:19.757Z,10.33
2022-08-30T04:30:19.746Z,10.26
2022-08-30T04:31:19.787Z,10.13
2022-08-30T04:32:19.782Z,10.09
2022-08-30T04:33:19.738Z,10.12
2022-08-30T04:34:19.722Z,10.02
2022-08-30T04:35:19.774Z,9.99
2022-08-30T04:36:19.797Z,10.04
2022-08-30T04:37:19.725Z,10.09
2022-08-30T04:38:22.353Z,9.97
2022-08-30T04:39:20.390Z,10.10
2022-08-30T04:40:20.625Z,10.10
2022-08-30T04:41:19.710Z,10.07
2022-08-30T04:42:19.679Z,10.07
2022-08-30T04:43:19.692Z,10.07
2022-08-30T04:44:19.884Z,10.16
2022-08-30T04:45:19.676Z,10.12
2022-08-30T04:46:19.843Z,10.10
2022-08-30T04:47:19.652Z,10.15
2022-08-30T04:48:19.682Z,10.17
2022-08-30T04:49:55.696Z,10.28
2022-08-30T04:50:19.707Z,10.35
2022-08-30T04:51:22.921Z,10.35
2022-08-30T04:52:19.671Z,10.42
2022-08-30T04:53:20.164Z,10.48
2022-08-30T04:54:19.621Z,10.57
2022-08-30T04:55:20.499Z,10.54
2022-08-30T04:56:20.618Z,10.63
2022-08-30T04:57:19.607Z,10.68
2022-08-30T04:58:19.640Z,10.79
2022-08-30T04:59:19.525Z,10.99
2022-08-30T05:00:19.563Z,11.00
2022-08-30T05:01:53.624Z,11.00
2022-08-30T05:02:53.627Z,11.08
2022-08-30T05:03:20.486Z,11.02
2022-08-30T05:04:19.688Z,11.05
2022-08-30T05:05:19.793Z,11.14
2022-08-30T05:06:20.486Z,11.10
2022-08-30T05:07:19.771Z,11.08
2022-08-30T05:08:24.343Z,11.12
2022-08-30T05:09:20.707Z,11.22
2022-08-30T05:10:19.848Z,11.18
2022-08-30T05:11:20.980Z,11.27
2022-08-30T05:12:19.685Z,11.52
2022-08-30T05:13:19.798Z,11.86
2022-08-30T05:14:20.354Z,12.20
2022-08-30T05:15:19.578Z,12.47
2022-08-30T05:16:19.605Z,12.73
2022-08-30T05:17:20.603Z,13.13
2022-08-30T05:18:19.479Z,13.33
2022-08-30T05:19:19.540Z,13.68
2022-08-30T05:20:19.937Z,13.87
2022-08-30T05:21:19.668Z,13.83
2022-08-30T05:22:20.692Z,13.62
2022-08-30T05:23:20.234Z,13.39
2022-08-30T05:24:19.769Z,13.35
2022-08-30T05:25:19.546Z,13.37
2022-08-30T05:26:20.305Z,13.41
2022-08-30T05:27:20.709Z,13.46
2022-08-30T05:28:21.024Z,13.75
2022-08-30T05:29:20.467Z,13.86
2022-08-30T05:30:20.075Z,13.99
2022-08-30T05:31:20.219Z,14.22
2022-08-30T05:32:19.523Z,14.35
2022-08-30T05:33:19.460Z,14.50
2022-08-30T05:34:19.456Z,14.68
2022-08-30T05:35:23.528Z,14.73
2022-08-30T05:36:21.403Z,13.99
2022-08-30T05:37:21.995Z,13.97
2022-08-30T05:38:19.378Z,13.83
2022-08-30T05:39:19.671Z,13.68
2022-08-30T05:40:19.390Z,13.39
2022-08-30T05:41:19.390Z,13.27
2022-08-30T05:42:19.428Z,13.50
2022-08-30T05:43:20.389Z,13.54
2022-08-30T05:44:22.982Z,13.59
2022-08-30T05:45:20.994Z,13.78
2022-08-30T05:46:20.206Z,13.68
2022-08-30T05:47:19.794Z,13.63
2022-08-30T05:48:19.349Z,13.95
2022-08-30T05:49:19.485Z,14.03
2022-08-30T05:50:19.322Z,14.32
2022-08-30T05:51:19.280Z,14.00
2022-08-30T05:52:20.003Z,13.99
2022-08-30T05:53:19.223Z,14.05
2022-08-30T05:54:19.996Z,13.86
2022-08-30T05:55:19.159Z,13.78
2022-08-30T05:56:19.236Z,13.83
2022-08-30T05:57:19.135Z,13.93
2022-08-30T05:58:19.155Z,13.90
2022-08-30T05:59:19.995Z,13.78
2022-08-30T06:00:19.894Z,13.89
2022-08-30T06:01:19.090Z,13.85
2022-08-30T06:02:20.065Z,13.77
2022-08-30T06:03:19.110Z,13.62
2022-08-30T06:04:19.108Z,13.47
2022-08-30T06:05:19.112Z,13.39
2022-08-30T06:06:19.105Z,13.25
2022-08-30T06:07:21.165Z,13.23
2022-08-30T06:08:19.138Z,13.38
2022-08-30T06:09:19.124Z,13.41
2022-08-30T06:10:19.157Z,13.50
2022-08-30T06:11:19.268Z,13.57
2022-08-30T06:12:19.065Z,13.72
2022-08-30T06:13:19.086Z,13.79
2022-08-30T06:14:19.077Z,13.90
2022-08-30T06:15:19.063Z,14.05
2022-08-30T06:16:19.057Z,14.10
2022-08-30T06:17:18.976Z,14.51
2022-08-30T06:18:18.948Z,15.07
2022-08-30T06:19:20.008Z,15.51
2022-08-30T06:20:18.967Z,16.29
2022-08-30T06:21:18.990Z,16.86
2022-08-30T06:22:19.549Z,17.14
2022-08-30T06:23:19.777Z,17.30
2022-08-30T06:24:19.003Z,17.74
2022-08-30T06:25:18.949Z,18.04
2022-08-30T06:26:19.348Z,18.15
2022-08-30T06:27:19.505Z,18.38
2022-08-30T06:28:19.052Z,18.81
2022-08-30T06:29:18.919Z,19.14
2022-08-30T06:30:18.917Z,19.64
2022-08-30T06:31:18.983Z,19.99
2022-08-30T06:32:18.878Z,20.10
2022-08-30T06:33:18.852Z,19.41
2022-08-30T06:34:18.862Z,19.37
2022-08-30T06:35:19.914Z,19.39
2022-08-30T06:36:20.505Z,19.15
2022-08-30T06:37:29.056Z,19.34
2022-08-30T06:38:20.508Z,19.48
2022-08-30T06:39:18.893Z,19.52
2022-08-30T06:40:18.881Z,19.24
2022-08-30T06:41:18.851Z,18.99
2022-08-30T06:42:19.508Z,18.22
2022-08-30T06:43:18.812Z,17.57
2022-08-30T06:44:18.779Z,17.02
2022-08-30T06:45:18.773Z,16.96
2022-08-30T06:46:18.777Z,16.79
2022-08-30T06:47:18.825Z,16.56
2022-08-30T06:48:18.940Z,16.81
2022-08-30T06:49:18.808Z,16.93
2022-08-30T06:50:18.769Z,16.86
2022-08-30T06:51:18.796Z,16.96
2022-08-30T06:52:19.511Z,17.45
2022-08-30T06:53:20.013Z,17.63
2022-08-30T06:54:19.511Z,17.59
2022-08-30T06:55:18.811Z,17.45
2022-08-30T06:56:18.986Z,17.60
2022-08-30T06:57:19.625Z,17.70
2022-08-30T06:58:18.630Z,17.60
2022-08-30T06:59:19.537Z,17.80
2022-08-30T07:00:18.675Z,18.20
2022-08-30T07:01:19.629Z,18.60
2022-08-30T07:02:19.554Z,18.81
2022-08-30T07:03:18.720Z,18.80
2022-08-30T07:04:18.742Z,19.09
2022-08-30T07:05:19.161Z,19.44
2022-08-30T07:06:19.652Z,19.45
2022-08-30T07:07:18.726Z,19.33
2022-08-30T07:08:56.163Z,19.16
2022-08-30T07:09:19.427Z,19.30
2022-08-30T07:10:18.585Z,20.10
2022-08-30T07:11:19.310Z,20.34
2022-08-30T07:12:19.234Z,21.07
2022-08-30T07:13:19.318Z,20.51
2022-08-30T07:14:19.654Z,19.69
2022-08-30T07:15:18.661Z,19.58
2022-08-30T07:16:19.397Z,19.48
2022-08-30T07:17:18.629Z,20.21
2022-08-30T07:18:19.061Z,20.92
2022-08-30T07:19:20.700Z,21.22
2022-08-30T07:20:18.564Z,21.88
2022-08-30T07:21:52.704Z,21.75
2022-08-30T07:22:52.712Z,22.32
2022-08-30T07:23:53.816Z,22.29
2022-08-30T07:24:18.412Z,21.73
2022-08-30T07:25:19.907Z,21.46
2022-08-30T07:26:18.499Z,21.02
2022-08-30T07:27:18.555Z,20.80
2022-08-30T07:28:18.471Z,20.29
2022-08-30T07:29:18.464Z,20.47
2022-08-30T07:30:19.363Z,20.67
2022-08-30T07:31:18.514Z,20.51
2022-08-30T07:32:18.424Z,20.22
2022-08-30T07:33:19.359Z,19.77
2022-08-30T07:34:20.631Z,19.58
2022-08-30T07:35:18.359Z,19.49
2022-08-30T07:36:18.416Z,19.63
2022-08-30T07:37:18.382Z,19.52
2022-08-30T07:38:18.334Z,19.70
2022-08-30T07:39:18.351Z,19.99
2022-08-30T07:40:18.550Z,19.91
2022-08-30T07:41:18.943Z,19.85
2022-08-30T07:42:18.376Z,19.89
2022-08-30T07:43:18.539Z,19.92
2022-08-30T07:44:19.044Z,19.99
2022-08-30T07:45:18.518Z,20.22
2022-08-30T07:46:19.107Z,20.58
2022-08-30T07:47:18.458Z,20.81
2022-08-30T07:48:19.163Z,20.47
2022-08-30T07:49:18.343Z,20.52
2022-08-30T07:50:18.423Z,20.26
2022-08-30T07:51:18.222Z,20.00
2022-08-30T07:52:18.260Z,19.63
2022-08-30T07:53:18.354Z,19.47
2022-08-30T07:54:18.296Z,19.15
2022-08-30T07:55:19.164Z,19.19
2022-08-30T07:56:18.293Z,19.14
2022-08-30T07:57:18.200Z,19.09
2022-08-30T07:58:18.290Z,19.07
2022-08-30T07:59:18.236Z,19.11
2022-08-30T08:00:18.270Z,19.08
2022-08-30T08:01:19.041Z,19.81
2022-08-30T08:02:18.362Z,20.88
2022-08-30T08:03:18.666Z,21.55
2022-08-30T08:04:19.175Z,22.07
2022-08-30T08:08:28.580Z,22.94
2022-08-30T08:09:29.797Z,22.59
2022-08-30T08:10:29.783Z,23.15
2022-08-30T08:11:33.487Z,23.47
2022-08-30T08:12:30.803Z,23.78
2022-08-30T08:13:32.763Z,23.93
2022-08-30T08:14:30.848Z,23.77
2022-08-30T08:16:03.174Z,23.65
2022-08-30T08:16:29.644Z,24.11
2022-08-30T08:17:29.668Z,23.48
2022-08-30T08:18:29.705Z,23.13
2022-08-30T08:19:29.645Z,23.65
2022-08-30T08:20:29.639Z,23.50
2022-08-30T08:21:29.664Z,23.76
2022-08-30T08:22:29.640Z,24.03
2022-08-30T08:23:29.612Z,24.21
2022-08-30T08:24:29.624Z,24.40
2022-08-30T08:25:29.623Z,24.29
2022-08-30T08:26:29.610Z,24.42
2022-08-30T08:27:29.563Z,25.22
2022-08-30T08:28:29.603Z,25.03
2022-08-30T08:29:29.613Z,25.32
2022-08-30T08:30:30.575Z,25.54
2022-08-30T08:31:33.462Z,25.36
2022-08-30T08:32:29.562Z,26.33
2022-08-30T08:33:29.623Z,24.65
2022-08-30T08:34:29.519Z,23.47
2022-08-30T08:35:30.079Z,23.61
2022-08-30T08:36:29.510Z,24.38
2022-08-30T08:37:29.500Z,25.13
2022-08-30T08:38:29.496Z,25.78
2022-08-30T08:39:29.513Z,26.06
2022-08-30T08:40:29.562Z,25.51
2022-08-30T08:41:29.520Z,25.22
2022-08-30T08:42:29.480Z,25.87
2022-08-30T08:43:29.508Z,26.07
2022-08-30T08:44:34.262Z,26.05
2022-08-30T08:45:31.455Z,25.58
2022-08-30T08:46:29.476Z,25.54
2022-08-30T08:47:29.456Z,24.80
2022-08-30T08:48:45.675Z,24.60
2022-08-30T08:49:30.407Z,24.42
2022-08-30T08:50:29.419Z,24.45
2022-08-30T08:51:29.406Z,24.20
2022-08-30T08:52:29.407Z,24.93
2022-08-30T08:53:45.525Z,25.14
2022-08-30T08:54:31.427Z,24.78
2022-08-30T08:55:29.420Z,24.88
2022-08-30T08:56:30.163Z,24.81
2022-08-30T08:57:29.503Z,24.70
2022-08-30T08:58:29.427Z,24.68
2022-08-30T08:59:29.392Z,24.58
2022-08-30T09:00:30.271Z,24.69
2022-08-30T09:01:29.439Z,25.13
2022-08-30T09:02:29.354Z,25.48
2022-08-30T09:03:29.378Z,25.48
2022-08-30T09:04:29.337Z,25.73
2022-08-30T09:05:29.348Z,25.83
2022-08-30T09:06:29.358Z,26.23
2022-08-30T09:07:30.162Z,25.88
2022-08-30T09:08:29.319Z,26.18
2022-08-30T09:09:29.280Z,26.44
2022-08-30T09:10:49.427Z,26.62
2022-08-30T09:11:31.346Z,27.12
2022-08-30T09:12:29.289Z,26.59
2022-08-30T09:13:30.086Z,26.47
2022-08-30T09:14:30.383Z,27.03
2022-08-30T09:15:29.341Z,26.66
2022-08-30T09:16:29.273Z,26.59
2022-08-30T09:17:29.233Z,26.19
2022-08-30T09:18:29.231Z,26.10
2022-08-30T09:19:29.204Z,26.26
2022-08-30T09:20:30.244Z,26.63
2022-08-30T09:21:30.090Z,26.34
2022-08-30T09:22:29.212Z,26.65
2022-08-30T09:23:29.192Z,26.70
2022-08-30T09:24:29.204Z,26.71
2022-08-30T09:25:29.136Z,26.40
2022-08-30T09:26:29.172Z,26.02
2022-08-30T09:27:29.241Z,25.50
2022-08-30T09:28:29.163Z,25.93
2022-08-30T09:29:29.115Z,26.28
2022-08-30T09:30:30.113Z,27.32
2022-08-30T09:31:29.150Z,28.02
2022-08-30T09:32:29.105Z,27.92
2022-08-30T09:33:29.133Z,27.48
2022-08-30T09:34:29.072Z,27.26
2022-08-30T09:35:29.106Z,27.39
2022-08-30T09:36:29.091Z,26.93
2022-08-30T09:37:29.122Z,25.91
2022-08-30T09:38:29.228Z,26.26
2022-08-30T09:39:29.064Z,26.90
2022-08-30T09:40:29.162Z,27.17
2022-08-30T09:41:29.068Z,27.32
2022-08-30T09:42:29.033Z,26.97
2022-08-30T09:43:29.059Z,26.83
2022-08-30T09:44:29.020Z,26.62
2022-08-30T09:45:30.031Z,26.29
2022-08-30T09:46:29.046Z,25.36
2022-08-30T09:47:28.986Z,25.38
2022-08-30T09:48:28.971Z,25.46
2022-08-30T09:49:28.973Z,25.77
2022-08-30T09:50:28.971Z,26.29
2022-08-30T09:51:28.949Z,26.40
2022-08-30T09:52:28.998Z,26.19
2022-08-30T09:53:28.987Z,26.85
2022-08-30T09:54:31.023Z,27.17
2022-08-30T09:55:28.930Z,26.66
2022-08-30T09:56:28.946Z,27.00
2022-08-30T09:57:33.770Z,27.52
2022-08-30T09:58:30.686Z,28.04
2022-08-30T09:59:29.920Z,28.59
2022-08-30T10:00:29.684Z,28.96
2022-08-30T10:01:28.951Z,28.11
2022-08-30T10:02:30.005Z,26.99
2022-08-30T10:03:36.301Z,27.40
2022-08-30T10:04:31.151Z,27.18
2022-08-30T10:05:29.848Z,27.07
2022-08-30T10:06:28.867Z,27.17
2022-08-30T10:07:29.285Z,27.45
2022-08-30T10:08:28.868Z,27.21
2022-08-30T10:09:28.845Z,26.96
2022-08-30T10:10:28.820Z,26.43
2022-08-30T10:11:28.822Z,26.40
2022-08-30T10:12:28.824Z,26.81
2022-08-30T10:13:28.821Z,27.36
2022-08-30T10:14:28.845Z,27.93
2022-08-30T10:15:28.817Z,28.07
2022-08-30T10:16:29.312Z,27.82
2022-08-30T10:17:28.865Z,27.14
2022-08-30T10:18:29.697Z,27.29
2022-08-30T10:19:29.284Z,27.86
2022-08-30T10:20:28.751Z,28.15
2022-08-30T10:21:29.681Z,28.04
2022-08-30T10:22:28.721Z,28.04
2022-08-30T10:23:28.711Z,28.26
2022-08-30T10:24:33.206Z,28.38
2022-08-30T10:25:30.287Z,28.25
2022-08-30T10:26:29.962Z,28.23
2022-08-30T10:27:28.731Z,28.32
2022-08-30T10:28:28.682Z,28.12
2022-08-30T10:29:28.713Z,28.14
2022-08-30T10:30:28.688Z,28.44
2022-08-30T10:31:28.704Z,28.48
2022-08-30T10:32:28.730Z,28.59
2022-08-30T10:33:28.683Z,27.82
2022-08-30T10:34:28.667Z,27.98
2022-08-30T10:35:29.083Z,28.32
2022-08-30T10:36:28.631Z,28.54
2022-08-30T10:37:28.673Z,28.05
2022-08-30T10:38:28.622Z,28.12
2022-08-30T10:40:31.310Z,28.56
2022-08-30T10:41:28.654Z,28.84
2022-08-30T10:42:29.122Z,29.10
2022-08-30T10:43:28.640Z,28.96
2022-08-30T10:44:28.673Z,28.81
2022-08-30T10:45:29.123Z,28.94
2022-08-30T10:46:28.565Z,28.75
2022-08-30T10:47:28.591Z,28.44
2022-08-30T10:48:28.582Z,28.38
2022-08-30T10:49:28.547Z,28.10
2022-08-30T10:50:28.554Z,28.39
2022-08-30T10:51:28.538Z,28.66
2022-08-30T10:52:28.557Z,28.57
2022-08-30T10:53:28.539Z,28.64
2022-08-30T10:54:28.538Z,28.45
2022-08-30T10:55:28.486Z,28.33
2022-08-30T10:56:28.536Z,28.26
2022-08-30T10:57:28.491Z,28.38
2022-08-30T10:58:28.475Z,28.67
2022-08-30T10:59:28.463Z,28.33
2022-08-30T11:00:28.498Z,28.27
2022-08-30T11:01:28.792Z,28.48
2022-08-30T11:02:29.462Z,28.32
2022-08-30T11:03:28.465Z,28.15
2022-08-30T11:04:28.446Z,28.45
2022-08-30T11:05:28.437Z,28.66
2022-08-30T11:06:29.346Z,27.86
2022-08-30T11:07:28.460Z,27.51
2022-08-30T11:08:28.430Z,27.68
2022-08-30T11:09:28.457Z,28.05
2022-08-30T11:10:28.415Z,28.11
2022-08-30T11:11:28.391Z,28.30
2022-08-30T11:12:28.385Z,27.67
2022-08-30T11:13:28.380Z,26.70
2022-08-30T11:14:28.374Z,27.05
2022-08-30T11:15:29.678Z,27.71
2022-08-30T11:16:28.386Z,28.29
2022-08-30T11:17:28.362Z,28.35
2022-08-30T11:18:28.318Z,27.98
2022-08-30T11:19:32.304Z,27.64
2022-08-30T11:20:28.305Z,27.32
2022-08-30T11:21:28.324Z,27.32
2022-08-30T11:22:28.313Z,27.80
2022-08-30T11:23:28.320Z,27.32
2022-08-30T11:24:28.292Z,26.80
2022-08-30T11:25:28.270Z,27.25
2022-08-30T11:26:28.259Z,27.42
2022-08-30T11:27:28.292Z,27.58
2022-08-30T11:28:28.240Z,27.86
2022-08-30T11:29:28.293Z,27.70
2022-08-30T11:30:28.255Z,27.55
2022-08-30T11:31:28.263Z,27.71
2022-08-30T11:32:28.234Z,27.98
2022-08-30T11:33:28.239Z,28.12
2022-08-30T11:34:28.234Z,27.85
2022-08-30T11:35:28.222Z,27.75
2022-08-30T11:36:28.208Z,27.73
2022-08-30T11:37:28.226Z,27.67
2022-08-30T11:38:28.215Z,27.51
2022-08-30T11:39:28.200Z,27.10
2022-08-30T11:40:28.181Z,26.71
2022-08-30T11:41:28.870Z,26.52
2022-08-30T11:42:29.390Z,26.55
2022-08-30T11:43:28.170Z,27.05
2022-08-30T11:44:28.850Z,27.40
2022-08-30T11:45:28.614Z,27.71
2022-08-30T11:46:28.229Z,28.01
2022-08-30T11:47:28.174Z,27.65
2022-08-30T11:48:28.108Z,27.02
2022-08-30T11:49:28.102Z,26.83
2022-08-30T11:50:28.091Z,27.27
2022-08-30T11:51:28.123Z,27.54
2022-08-30T11:52:28.696Z,28.02
2022-08-30T11:53:29.110Z,27.71
2022-08-30T11:54:28.130Z,28.02
2022-08-30T11:55:28.090Z,27.67
2022-08-30T11:56:28.064Z,27.26
2022-08-30T11:57:28.117Z,27.58
2022-08-30T11:58:28.091Z,28.04
2022-08-30T11:59:28.060Z,28.38
2022-08-30T12:00:28.548Z,28.85
2022-08-30T12:01:50.783Z,28.42
2022-08-30T12:02:30.220Z,28.51
2022-08-30T12:03:28.073Z,28.60
2022-08-30T12:04:28.009Z,28.67
2022-08-30T12:05:28.876Z,28.57
2022-08-30T12:06:28.010Z,28.64
2022-08-30T12:07:28.012Z,28.74
2022-08-30T12:08:28.163Z,28.66
2022-08-30T12:09:28.011Z,28.54
2022-08-30T12:10:28.027Z,28.25
2022-08-30T12:11:28.014Z,27.87
2022-08-30T12:12:27.972Z,28.15
2022-08-30T12:13:27.963Z,28.42
2022-08-30T12:14:27.973Z,28.60
2022-08-30T12:15:27.918Z,29.17
2022-08-30T12:16:27.942Z,29.53
2022-08-30T12:17:27.890Z,29.44
2022-08-30T12:18:27.880Z,29.04
2022-08-30T12:19:27.895Z,28.93
2022-08-30T12:20:27.900Z,28.91
2022-08-30T12:21:28.051Z,28.45
2022-08-30T12:22:27.921Z,28.56
2022-08-30T12:23:27.851Z,28.45
2022-08-30T12:24:27.869Z,28.70
2022-08-30T12:25:27.879Z,28.66
2022-08-30T12:26:27.838Z,29.01
2022-08-30T12:27:27.830Z,28.66
2022-08-30T12:28:28.823Z,28.67
2022-08-30T12:29:27.810Z,28.78
2022-08-30T12:30:27.842Z,28.84
2022-08-30T12:31:27.964Z,29.05
2022-08-30T12:32:27.800Z,28.97
2022-08-30T12:33:29.328Z,29.08
2022-08-30T12:34:27.868Z,29.02
2022-08-30T12:35:27.766Z,29.19
2022-08-30T12:36:28.796Z,29.34
2022-08-30T12:37:28.392Z,29.23
2022-08-30T12:39:05.456Z,29.07
2022-08-30T12:39:27.753Z,28.85
2022-08-30T12:41:01.509Z,28.78
2022-08-30T12:41:27.751Z,28.89
2022-08-30T12:42:27.763Z,28.98
2022-08-30T12:43:27.688Z,29.01
2022-08-30T12:44:28.709Z,29.20
2022-08-30T12:45:27.777Z,29.41
2022-08-30T12:46:27.826Z,29.49
2022-08-30T12:47:27.710Z,29.47
2022-08-30T12:48:27.713Z,29.34
2022-08-30T12:49:27.679Z,29.49
2022-08-30T12:50:29.458Z,29.53
2022-08-30T12:51:27.649Z,29.68
2022-08-30T12:52:27.705Z,29.54
2022-08-30T12:53:27.661Z,29.47
2022-08-30T12:54:27.636Z,29.54
2022-08-30T12:55:27.633Z,29.98
2022-08-30T12:56:49.471Z,29.69
2022-08-30T12:57:35.182Z,29.16
2022-08-30T12:58:29.612Z,28.56
2022-08-30T12:59:27.618Z,28.27
2022-08-30T13:00:27.690Z,28.08
2022-08-30T13:01:27.750Z,27.64
2022-08-30T13:02:27.684Z,27.30
2022-08-30T13:03:27.924Z,27.85
2022-08-30T13:04:27.587Z,28.00
2022-08-30T13:05:27.610Z,27.93
2022-08-30T13:06:27.664Z,27.33
2022-08-30T13:07:27.591Z,27.15
2022-08-30T13:08:27.611Z,27.39
2022-08-30T13:09:27.557Z,27.26
2022-08-30T13:10:28.561Z,27.51
2022-08-30T13:11:29.556Z,27.54
2022-08-30T13:12:27.531Z,27.59
2022-08-30T13:13:27.529Z,27.60
2022-08-30T13:14:27.499Z,28.02
2022-08-30T13:15:27.497Z,28.01
2022-08-30T13:16:29.564Z,28.45
2022-08-30T13:17:27.504Z,28.72
2022-08-30T13:18:27.539Z,29.20
2022-08-30T13:19:27.518Z,29.12
2022-08-30T13:20:27.478Z,28.98
2022-08-30T13:21:28.223Z,29.22
2022-08-30T13:22:27.474Z,29.29
2022-08-30T13:23:27.494Z,29.45
2022-08-30T13:24:27.413Z,29.51
2022-08-30T13:25:27.492Z,29.47
2022-08-30T13:26:27.434Z,29.17
2022-08-30T13:27:27.407Z,29.07
2022-08-30T13:28:27.402Z,28.94
2022-08-30T13:29:27.418Z,28.76
2022-08-30T13:30:27.371Z,28.75
2022-08-30T13:31:27.462Z,28.49
2022-08-30T13:32:27.410Z,28.25
2022-08-30T13:33:27.392Z,27.93
2022-08-30T13:34:27.447Z,27.96
2022-08-30T13:35:27.365Z,28.17
2022-08-30T13:36:27.351Z,28.44
2022-08-30T13:37:57.109Z,28.42
2022-08-30T13:38:29.346Z,28.64
2022-08-30T13:39:27.353Z,28.96
2022-08-30T13:40:27.341Z,29.23
2022-08-30T13:41:33.762Z,29.22
2022-08-30T13:42:32.005Z,29.32
2022-08-30T13:43:28.925Z,29.61
2022-08-30T13:44:28.346Z,29.38
2022-08-30T13:45:43.390Z,29.14
2022-08-30T13:46:29.334Z,28.94
2022-08-30T13:47:35.369Z,28.19
2022-08-30T13:48:29.286Z,27.80
2022-08-30T13:49:43.506Z,27.78
2022-08-30T13:50:30.534Z,27.35
2022-08-30T13:51:27.239Z,27.42
2022-08-30T13:52:27.246Z,28.02
2022-08-30T13:53:57.246Z,28.29
2022-08-30T13:54:29.247Z,28.49
2022-08-30T13:55:27.331Z,28.79
2022-08-30T13:56:27.203Z,28.88
2022-08-30T13:58:29.184Z,29.13
2022-08-30T13:59:27.239Z,28.88
2022-08-30T14:00:27.248Z,28.70
2022-08-30T14:01:27.472Z,28.79
2022-08-30T14:02:27.215Z,29.08
2022-08-30T14:03:27.533Z,29.10
2022-08-30T14:04:27.191Z,28.86
2022-08-30T14:06:33.946Z,28.22
2022-08-30T14:07:29.167Z,28.14
2022-08-30T14:09:29.126Z,28.37
2022-08-30T14:10:30.816Z,28.12
2022-08-30T14:11:28.115Z,27.98
2022-08-30T14:13:29.261Z,27.80
2022-08-30T14:14:42.546Z,27.60
2022-08-30T14:16:28.344Z,27.47
2022-08-30T14:17:59.653Z,27.54
2022-08-30T14:20:16.749Z,27.35
2022-08-30T14:21:13.921Z,27.51
2022-08-30T14:22:12.896Z,27.80
2022-08-30T14:23:12.901Z,27.98
2022-08-30T14:24:12.932Z,28.01
2022-08-30T14:25:12.883Z,28.02
2022-08-30T14:26:12.861Z,28.10
2022-08-30T14:27:14.127Z,28.10
2022-08-30T14:28:14.055Z,28.02
2022-08-30T14:29:14.641Z,28.12
2022-08-30T14:30:16.718Z,28.01
2022-08-30T14:31:15.069Z,28.20
2022-08-30T14:32:14.000Z,28.25
2022-08-30T14:33:14.002Z,28.23
2022-08-30T14:34:14.031Z,28.07
2022-08-30T14:35:13.964Z,28.04
2022-08-30T14:36:15.785Z,27.98
2022-08-30T14:37:14.012Z,27.89
2022-08-30T14:38:46.387Z,27.92
2022-08-30T14:39:13.989Z,28.01
2022-08-30T14:40:14.736Z,27.87
2022-08-30T14:41:13.983Z,27.87
2022-08-30T14:42:18.762Z,27.70
2022-08-30T14:43:14.985Z,27.39
2022-08-30T14:44:13.989Z,27.30
2022-08-30T14:45:13.977Z,27.33
2022-08-30T14:46:13.934Z,27.48
2022-08-30T14:47:13.955Z,27.33
2022-08-30T14:48:46.924Z,26.90
2022-08-30T14:49:13.875Z,26.93
2022-08-30T14:50:13.856Z,27.02
2022-08-30T14:51:13.867Z,26.71
2022-08-30T14:52:13.882Z,26.81
2022-08-30T14:53:13.877Z,26.92
2022-08-30T14:54:14.697Z,27.17
2022-08-30T14:55:13.960Z,27.32
2022-08-30T14:56:13.837Z,27.39
2022-08-30T14:57:13.858Z,27.44
2022-08-30T14:58:13.845Z,27.55
2022-08-30T14:59:13.780Z,27.54
2022-08-30T15:00:13.770Z,27.42
2022-08-30T15:01:13.827Z,27.25
2022-08-30T15:02:13.805Z,27.12
2022-08-30T15:03:13.833Z,27.10
2022-08-30T15:04:13.838Z,26.97
2022-08-30T15:05:13.831Z,27.00
2022-08-30T15:06:47.072Z,26.90
2022-08-30T15:11:26.371Z,27.27
2022-08-30T15:12:26.387Z,27.29
2022-08-30T15:13:27.513Z,27.48
2022-08-30T15:14:29.167Z,27.42
2022-08-30T15:15:28.413Z,27.35
2022-08-30T15:16:27.681Z,27.33
2022-08-30T15:17:29.123Z,27.12
2022-08-30T15:18:27.567Z,27.36
2022-08-30T15:19:27.532Z,27.33
2022-08-30T15:20:27.555Z,27.35
2022-08-30T15:21:27.602Z,26.99
2022-08-30T15:22:27.563Z,27.12
2022-08-30T15:24:00.118Z,27.27
2022-08-30T15:26:13.505Z,27.07
2022-08-30T15:27:14.911Z,27.00
2022-08-30T15:28:16.956Z,27.10
2022-08-30T15:29:15.316Z,27.11
2022-08-30T15:30:15.633Z,27.00
2022-08-30T15:31:14.833Z,27.18
2022-08-30T15:32:14.842Z,27.25
2022-08-30T15:33:14.744Z,27.11
2022-08-30T15:34:15.315Z,27.20
2022-08-30T15:35:14.662Z,27.29
2022-08-30T15:36:15.368Z,27.18
2022-08-30T15:37:14.682Z,27.18
2022-08-30T15:38:14.679Z,27.17
2022-08-30T15:39:15.330Z,27.05
2022-08-30T15:40:14.716Z,27.12
2022-08-30T15:41:14.702Z,27.20
2022-08-30T15:42:19.030Z,27.25
2022-08-30T15:43:15.709Z,27.21
2022-08-30T15:44:15.095Z,26.99
2022-08-30T15:46:34.644Z,27.00
2022-08-30T15:49:45.162Z,26.70
2022-08-30T15:50:45.181Z,26.83
2022-08-30T15:51:46.440Z,26.83
2022-08-30T15:52:46.421Z,26.74
2022-08-30T15:53:46.526Z,26.75
2022-08-30T15:54:48.383Z,26.65
2022-08-30T15:55:47.474Z,26.65
2022-08-30T15:56:46.350Z,26.63
2022-08-30T15:57:46.872Z,26.70
2022-08-30T15:58:46.384Z,26.78
2022-08-30T15:59:47.424Z,26.68
2022-08-30T16:00:46.308Z,26.65
2022-08-30T16:01:47.845Z,26.73
2022-08-30T16:02:46.339Z,26.81
2022-08-30T16:03:47.327Z,26.85
2022-08-30T16:04:46.404Z,26.80
2022-08-30T16:05:46.339Z,26.74
2022-08-30T16:06:46.914Z,26.70
2022-08-30T16:07:46.311Z,26.74
2022-08-30T16:08:47.437Z,26.53
2022-08-30T16:09:46.338Z,26.66
2022-08-30T16:10:48.077Z,26.63
2022-08-30T16:11:46.920Z,26.63
2022-08-30T16:12:46.308Z,26.47
2022-08-30T16:13:50.315Z,26.44
2022-08-30T16:14:47.292Z,26.38
2022-08-30T16:15:46.979Z,26.44
2022-08-30T16:16:46.341Z,26.31
2022-08-30T16:17:46.471Z,26.18
2022-08-30T16:18:46.581Z,26.13
2022-08-30T16:19:47.398Z,26.09
2022-08-30T16:20:47.303Z,26.10
2022-08-30T16:21:46.302Z,26.00
2022-08-30T16:22:47.098Z,26.10
2022-08-30T16:23:47.228Z,26.03
2022-08-30T16:24:46.960Z,26.10
2022-08-30T16:25:46.288Z,26.02
2022-08-30T16:26:46.382Z,26.05
2022-08-30T16:27:47.175Z,25.90
2022-08-30T16:28:46.747Z,25.87
2022-08-30T16:30:18.615Z,25.85
2022-08-30T16:30:46.147Z,25.83
2022-08-30T16:31:47.349Z,25.87
2022-08-30T16:32:46.254Z,25.91
2022-08-30T16:33:47.437Z,25.91
2022-08-30T16:34:47.479Z,25.95
2022-08-30T16:35:46.964Z,25.87
2022-08-30T16:36:46.960Z,25.83
2022-08-30T16:37:46.489Z,25.72
2022-08-30T16:38:46.205Z,25.77
2022-08-30T16:39:47.101Z,25.60
2022-08-30T16:40:46.961Z,25.55
2022-08-30T16:41:46.064Z,25.65
2022-08-30T16:42:46.982Z,25.70
2022-08-30T16:43:46.106Z,25.70
2022-08-30T16:44:46.963Z,25.58
2022-08-30T16:45:46.075Z,25.69
2022-08-30T16:46:53.087Z,25.75
2022-08-30T16:47:47.046Z,25.72
2022-08-30T16:49:19.476Z,25.63
2022-08-30T16:49:46.677Z,25.59
2022-08-30T16:50:45.923Z,25.69
2022-08-30T16:51:46.748Z,25.53
2022-08-30T16:52:46.539Z,25.54
2022-08-30T16:53:46.500Z,25.51
2022-08-30T16:54:46.045Z,25.44
2022-08-30T16:55:46.914Z,25.47
2022-08-30T16:58:46.482Z,25.44
2022-08-30T16:59:46.136Z,25.40
2022-08-30T17:00:47.784Z,25.38
2022-08-30T17:01:48.310Z,25.32
2022-08-30T17:02:53.636Z,25.32
2022-08-30T17:04:18.302Z,25.25
2022-08-30T17:05:48.567Z,25.13
2022-08-30T17:06:47.569Z,25.13
2022-08-30T17:07:46.843Z,25.13
2022-08-30T17:09:20.042Z,25.13
2022-08-30T17:09:47.308Z,24.99
2022-08-30T17:10:50.084Z,25.01
2022-08-30T17:11:46.575Z,24.91
2022-08-30T17:12:46.604Z,24.68
2022-08-30T17:13:46.684Z,24.74
2022-08-30T17:14:47.414Z,24.69
2022-08-30T17:15:47.304Z,24.69
2022-08-30T17:17:49.605Z,24.68
2022-08-30T17:18:46.729Z,24.55